sensor_id;sensor_type;location;lat;lon;timestamp;P1;durP1;ratioP1;P2;durP2;ratioP2
1004;SDS011;491;53.480;10.174;2022-07-19T00:01:23;3.47;;;2.27;;
1004;SDS011;491;53.480;10.174;2022-07-19T00:03:49;2.83;;;1.80;;
1004;SDS011;491;53.480;10.174;2022-07-19T00:06:14;2.90;;;2.30;;
1004;SDS011;491;53.480;10.174;2022-07-19T00:08:40;3.47;;;2.07;;
1004;SDS011;491;53.480;10.174;2022-07-19T00:11:06;4.20;;;2.17;;
1004;SDS011;491;53.480;10.174;2022-07-19T00:13:31;4.57;;;3.20;;
1004;SDS011;491;53.480;10.174;2022-07-19T00:15:57;4.90;;;3.07;;
1004;SDS011;491;53.480;10.174;2022-07-19T00:18:22;4.37;;;2.77;;
1004;SDS011;491;53.480;10.174;2022-07-19T00:20:48;5.17;;;2.30;;
1004;SDS011;491;53.480;10.174;2022-07-19T00:23:13;3.50;;;2.50;;
1004;SDS011;491;53.480;10.174;2022-07-19T00:25:39;3.50;;;1.93;;
1004;SDS011;491;53.480;10.174;2022-07-19T00:28:04;8.47;;;2.60;;
1004;SDS011;491;53.480;10.174;2022-07-19T00:30:30;8.40;;;2.77;;
1004;SDS011;491;53.480;10.174;2022-07-19T00:32:55;4.80;;;2.70;;
1004;SDS011;491;53.480;10.174;2022-07-19T00:35:21;5.10;;;2.57;;
1004;SDS011;491;53.480;10.174;2022-07-19T00:37:47;4.27;;;2.50;;
1004;SDS011;491;53.480;10.174;2022-07-19T00:40:13;2.80;;;2.00;;
1004;SDS011;491;53.480;10.174;2022-07-19T00:42:46;5.23;;;3.00;;
1004;SDS011;491;53.480;10.174;2022-07-19T00:45:12;3.27;;;2.00;;
1004;SDS011;491;53.480;10.174;2022-07-19T00:47:39;6.63;;;2.80;;
1004;SDS011;491;53.480;10.174;2022-07-19T00:50:05;2.67;;;2.20;;
1004;SDS011;491;53.480;10.174;2022-07-19T00:52:30;5.80;;;2.30;;
1004;SDS011;491;53.480;10.174;2022-07-19T00:54:58;3.00;;;2.33;;
1004;SDS011;491;53.480;10.174;2022-07-19T00:57:24;4.93;;;3.03;;
1004;SDS011;491;53.480;10.174;2022-07-19T00:59:51;3.80;;;3.10;;
1004;SDS011;491;53.480;10.174;2022-07-19T01:02:18;5.43;;;3.17;;
1004;SDS011;491;53.480;10.174;2022-07-19T01:04:44;3.70;;;2.23;;
1004;SDS011;491;53.480;10.174;2022-07-19T01:07:10;4.57;;;2.60;;
1004;SDS011;491;53.480;10.174;2022-07-19T01:09:37;2.50;;;2.13;;
1004;SDS011;491;53.480;10.174;2022-07-19T01:12:03;4.37;;;3.00;;
1004;SDS011;491;53.480;10.174;2022-07-19T01:14:29;4.03;;;2.40;;
1004;SDS011;491;53.480;10.174;2022-07-19T01:16:56;3.67;;;2.60;;
1004;SDS011;491;53.480;10.174;2022-07-19T01:19:21;3.73;;;2.33;;
1004;SDS011;491;53.480;10.174;2022-07-19T01:21:47;4.70;;;2.60;;
1004;SDS011;491;53.480;10.174;2022-07-19T01:24:12;3.60;;;2.17;;
1004;SDS011;491;53.480;10.174;2022-07-19T01:26:38;2.57;;;1.47;;
1004;SDS011;491;53.480;10.174;2022-07-19T01:29:03;5.17;;;2.20;;
1004;SDS011;491;53.480;10.174;2022-07-19T01:31:29;3.57;;;1.80;;
1004;SDS011;491;53.480;10.174;2022-07-19T01:33:54;3.90;;;2.67;;
1004;SDS011;491;53.480;10.174;2022-07-19T01:36:20;4.30;;;1.70;;
1004;SDS011;491;53.480;10.174;2022-07-19T01:38:45;3.60;;;2.00;;
1004;SDS011;491;53.480;10.174;2022-07-19T01:41:11;4.67;;;2.53;;
1004;SDS011;491;53.480;10.174;2022-07-19T01:43:36;3.93;;;2.30;;
1004;SDS011;491;53.480;10.174;2022-07-19T01:46:02;5.00;;;2.00;;
1004;SDS011;491;53.480;10.174;2022-07-19T01:48:28;3.50;;;2.27;;
1004;SDS011;491;53.480;10.174;2022-07-19T01:50:53;4.60;;;2.87;;
1004;SDS011;491;53.480;10.174;2022-07-19T01:53:19;3.13;;;1.93;;
1004;SDS011;491;53.480;10.174;2022-07-19T01:55:45;3.90;;;2.10;;
1004;SDS011;491;53.480;10.174;2022-07-19T01:58:11;4.23;;;2.90;;
1004;SDS011;491;53.480;10.174;2022-07-19T02:00:36;4.13;;;2.63;;
1004;SDS011;491;53.480;10.174;2022-07-19T02:03:01;2.70;;;1.50;;
1004;SDS011;491;53.480;10.174;2022-07-19T02:05:27;3.13;;;1.50;;
1004;SDS011;491;53.480;10.174;2022-07-19T02:07:52;3.90;;;1.70;;
1004;SDS011;491;53.480;10.174;2022-07-19T02:10:18;3.80;;;2.30;;
1004;SDS011;491;53.480;10.174;2022-07-19T02:12:43;4.47;;;2.20;;
1004;SDS011;491;53.480;10.174;2022-07-19T02:15:09;3.67;;;2.60;;
1004;SDS011;491;53.480;10.174;2022-07-19T02:17:36;3.50;;;2.20;;
1004;SDS011;491;53.480;10.174;2022-07-19T02:20:02;4.53;;;2.23;;
1004;SDS011;491;53.480;10.174;2022-07-19T02:22:28;5.07;;;2.40;;
1004;SDS011;491;53.480;10.174;2022-07-19T02:24:54;3.47;;;1.93;;
1004;SDS011;491;53.480;10.174;2022-07-19T02:27:20;2.60;;;1.33;;
1004;SDS011;491;53.480;10.174;2022-07-19T02:29:46;6.13;;;3.00;;
1004;SDS011;491;53.480;10.174;2022-07-19T02:32:11;4.43;;;2.63;;
1004;SDS011;491;53.480;10.174;2022-07-19T02:34:37;4.27;;;2.40;;
1004;SDS011;491;53.480;10.174;2022-07-19T02:37:02;3.97;;;2.80;;
1004;SDS011;491;53.480;10.174;2022-07-19T02:39:28;4.47;;;2.33;;
1004;SDS011;491;53.480;10.174;2022-07-19T02:41:54;6.00;;;2.77;;
1004;SDS011;491;53.480;10.174;2022-07-19T02:44:19;3.90;;;2.13;;
1004;SDS011;491;53.480;10.174;2022-07-19T02:46:45;4.47;;;1.33;;
1004;SDS011;491;53.480;10.174;2022-07-19T02:49:11;4.40;;;2.10;;
1004;SDS011;491;53.480;10.174;2022-07-19T02:51:36;4.20;;;2.53;;
1004;SDS011;491;53.480;10.174;2022-07-19T02:54:02;3.87;;;2.47;;
1004;SDS011;491;53.480;10.174;2022-07-19T02:56:27;4.07;;;2.10;;
1004;SDS011;491;53.480;10.174;2022-07-19T02:58:52;5.93;;;2.27;;
1004;SDS011;491;53.480;10.174;2022-07-19T03:01:18;4.73;;;2.23;;
1004;SDS011;491;53.480;10.174;2022-07-19T03:03:44;5.07;;;2.43;;
1004;SDS011;491;53.480;10.174;2022-07-19T03:06:10;3.47;;;1.50;;
1004;SDS011;491;53.480;10.174;2022-07-19T03:08:37;3.80;;;2.17;;
1004;SDS011;491;53.480;10.174;2022-07-19T03:11:03;3.70;;;2.27;;
1004;SDS011;491;53.480;10.174;2022-07-19T03:13:28;6.77;;;3.23;;
1004;SDS011;491;53.480;10.174;2022-07-19T03:15:54;4.93;;;2.40;;
1004;SDS011;491;53.480;10.174;2022-07-19T03:18:19;6.30;;;4.10;;
1004;SDS011;491;53.480;10.174;2022-07-19T03:20:45;3.83;;;1.97;;
1004;SDS011;491;53.480;10.174;2022-07-19T03:23:10;3.50;;;1.70;;
1004;SDS011;491;53.480;10.174;2022-07-19T03:25:36;6.27;;;2.97;;
1004;SDS011;491;53.480;10.174;2022-07-19T03:28:02;5.27;;;2.73;;
1004;SDS011;491;53.480;10.174;2022-07-19T03:30:27;4.43;;;3.27;;
1004;SDS011;491;53.480;10.174;2022-07-19T03:32:53;3.87;;;2.23;;
1004;SDS011;491;53.480;10.174;2022-07-19T03:35:19;3.57;;;2.37;;
1004;SDS011;491;53.480;10.174;2022-07-19T03:37:45;4.50;;;2.50;;
1004;SDS011;491;53.480;10.174;2022-07-19T03:40:11;5.40;;;2.37;;
1004;SDS011;491;53.480;10.174;2022-07-19T03:42:37;4.47;;;2.43;;
1004;SDS011;491;53.480;10.174;2022-07-19T03:45:03;3.80;;;1.87;;
1004;SDS011;491;53.480;10.174;2022-07-19T03:47:29;4.63;;;2.13;;
1004;SDS011;491;53.480;10.174;2022-07-19T03:50:06;5.40;;;2.80;;
1004;SDS011;491;53.480;10.174;2022-07-19T03:52:32;4.97;;;2.10;;
1004;SDS011;491;53.480;10.174;2022-07-19T03:54:57;4.10;;;2.03;;
1004;SDS011;491;53.480;10.174;2022-07-19T03:57:23;3.80;;;2.20;;
1004;SDS011;491;53.480;10.174;2022-07-19T03:59:48;2.80;;;1.57;;
1004;SDS011;491;53.480;10.174;2022-07-19T04:02:14;4.10;;;1.90;;
1004;SDS011;491;53.480;10.174;2022-07-19T04:04:40;3.43;;;2.10;;
1004;SDS011;491;53.480;10.174;2022-07-19T04:07:08;6.63;;;3.00;;
1004;SDS011;491;53.480;10.174;2022-07-19T04:09:33;5.17;;;2.90;;
1004;SDS011;491;53.480;10.174;2022-07-19T04:11:59;5.60;;;2.77;;
1004;SDS011;491;53.480;10.174;2022-07-19T04:14:24;5.73;;;2.53;;
1004;SDS011;491;53.480;10.174;2022-07-19T04:16:50;4.67;;;2.30;;
1004;SDS011;491;53.480;10.174;2022-07-19T04:19:15;5.67;;;2.73;;
1004;SDS011;491;53.480;10.174;2022-07-19T04:21:41;3.27;;;2.40;;
1004;SDS011;491;53.480;10.174;2022-07-19T04:24:06;3.57;;;2.50;;
1004;SDS011;491;53.480;10.174;2022-07-19T04:26:32;3.60;;;2.60;;
1004;SDS011;491;53.480;10.174;2022-07-19T04:28:57;3.40;;;2.03;;
1004;SDS011;491;53.480;10.174;2022-07-19T04:31:23;4.37;;;2.33;;
1004;SDS011;491;53.480;10.174;2022-07-19T04:33:51;4.67;;;2.43;;
1004;SDS011;491;53.480;10.174;2022-07-19T04:36:17;6.43;;;3.40;;
1004;SDS011;491;53.480;10.174;2022-07-19T04:38:42;3.97;;;1.73;;
1004;SDS011;491;53.480;10.174;2022-07-19T04:41:07;3.93;;;2.30;;
1004;SDS011;491;53.480;10.174;2022-07-19T04:43:42;4.20;;;3.10;;
1004;SDS011;491;53.480;10.174;2022-07-19T04:46:07;4.40;;;2.40;;
1004;SDS011;491;53.480;10.174;2022-07-19T04:48:33;4.80;;;2.97;;
1004;SDS011;491;53.480;10.174;2022-07-19T04:50:59;4.97;;;1.50;;
1004;SDS011;491;53.480;10.174;2022-07-19T04:53:24;3.90;;;2.07;;
1004;SDS011;491;53.480;10.174;2022-07-19T04:55:50;4.70;;;2.80;;
1004;SDS011;491;53.480;10.174;2022-07-19T04:58:15;4.80;;;2.63;;
1004;SDS011;491;53.480;10.174;2022-07-19T05:00:41;6.17;;;3.40;;
1004;SDS011;491;53.480;10.174;2022-07-19T05:03:06;4.57;;;2.50;;
1004;SDS011;491;53.480;10.174;2022-07-19T05:05:32;4.27;;;2.60;;
1004;SDS011;491;53.480;10.174;2022-07-19T05:07:57;3.80;;;2.90;;
1004;SDS011;491;53.480;10.174;2022-07-19T05:10:23;4.50;;;2.80;;
1004;SDS011;491;53.480;10.174;2022-07-19T05:12:49;3.90;;;3.00;;
1004;SDS011;491;53.480;10.174;2022-07-19T05:15:14;5.13;;;2.67;;
1004;SDS011;491;53.480;10.174;2022-07-19T05:17:40;4.57;;;2.37;;
1004;SDS011;491;53.480;10.174;2022-07-19T05:20:05;3.93;;;2.50;;
1004;SDS011;491;53.480;10.174;2022-07-19T05:22:31;2.97;;;2.40;;
1004;SDS011;491;53.480;10.174;2022-07-19T05:24:57;3.60;;;1.70;;
1004;SDS011;491;53.480;10.174;2022-07-19T05:27:23;5.37;;;3.03;;
1004;SDS011;491;53.480;10.174;2022-07-19T05:29:52;3.53;;;2.40;;
1004;SDS011;491;53.480;10.174;2022-07-19T05:32:17;4.00;;;2.00;;
1004;SDS011;491;53.480;10.174;2022-07-19T05:34:43;5.27;;;3.10;;
1004;SDS011;491;53.480;10.174;2022-07-19T05:37:09;3.50;;;2.30;;
1004;SDS011;491;53.480;10.174;2022-07-19T05:39:34;3.93;;;2.40;;
1004;SDS011;491;53.480;10.174;2022-07-19T05:42:00;4.70;;;3.43;;
1004;SDS011;491;53.480;10.174;2022-07-19T05:44:25;4.07;;;2.70;;
1004;SDS011;491;53.480;10.174;2022-07-19T05:46:51;5.30;;;2.10;;
1004;SDS011;491;53.480;10.174;2022-07-19T05:49:17;5.33;;;2.97;;
1004;SDS011;491;53.480;10.174;2022-07-19T05:51:48;9.87;;;2.90;;
1004;SDS011;491;53.480;10.174;2022-07-19T05:54:14;4.67;;;1.60;;
1004;SDS011;491;53.480;10.174;2022-07-19T05:56:39;5.27;;;3.50;;
1004;SDS011;491;53.480;10.174;2022-07-19T05:59:05;5.50;;;2.97;;
1004;SDS011;491;53.480;10.174;2022-07-19T06:01:30;3.17;;;2.07;;
1004;SDS011;491;53.480;10.174;2022-07-19T06:03:59;4.37;;;2.90;;
1004;SDS011;491;53.480;10.174;2022-07-19T06:06:26;4.47;;;2.90;;
1004;SDS011;491;53.480;10.174;2022-07-19T06:08:56;4.50;;;2.63;;
1004;SDS011;491;53.480;10.174;2022-07-19T06:11:23;3.27;;;2.50;;
1004;SDS011;491;53.480;10.174;2022-07-19T06:13:49;3.77;;;2.20;;
1004;SDS011;491;53.480;10.174;2022-07-19T06:16:15;4.87;;;2.83;;
1004;SDS011;491;53.480;10.174;2022-07-19T06:18:41;3.97;;;1.60;;
1004;SDS011;491;53.480;10.174;2022-07-19T06:21:10;4.97;;;2.37;;
1004;SDS011;491;53.480;10.174;2022-07-19T06:23:38;5.40;;;2.43;;
1004;SDS011;491;53.480;10.174;2022-07-19T06:26:05;3.80;;;2.20;;
1004;SDS011;491;53.480;10.174;2022-07-19T06:28:32;5.57;;;3.03;;
1004;SDS011;491;53.480;10.174;2022-07-19T06:30:58;3.20;;;2.00;;
1004;SDS011;491;53.480;10.174;2022-07-19T06:33:24;3.23;;;2.10;;
1004;SDS011;491;53.480;10.174;2022-07-19T06:35:49;3.20;;;2.03;;
1004;SDS011;491;53.480;10.174;2022-07-19T06:38:15;3.20;;;1.83;;
1004;SDS011;491;53.480;10.174;2022-07-19T06:40:41;5.53;;;2.83;;
1004;SDS011;491;53.480;10.174;2022-07-19T06:43:07;3.10;;;1.93;;
1004;SDS011;491;53.480;10.174;2022-07-19T06:45:33;2.50;;;1.80;;
1004;SDS011;491;53.480;10.174;2022-07-19T06:47:58;5.30;;;3.13;;
1004;SDS011;491;53.480;10.174;2022-07-19T06:50:24;4.07;;;2.43;;
1004;SDS011;491;53.480;10.174;2022-07-19T06:52:49;3.90;;;2.57;;
1004;SDS011;491;53.480;10.174;2022-07-19T06:55:15;3.87;;;2.63;;
1004;SDS011;491;53.480;10.174;2022-07-19T06:57:41;3.30;;;2.33;;
1004;SDS011;491;53.480;10.174;2022-07-19T07:00:06;3.40;;;1.90;;
1004;SDS011;491;53.480;10.174;2022-07-19T07:02:36;3.13;;;1.80;;
1004;SDS011;491;53.480;10.174;2022-07-19T07:05:02;3.03;;;2.20;;
1004;SDS011;491;53.480;10.174;2022-07-19T07:07:29;3.37;;;1.80;;
1004;SDS011;491;53.480;10.174;2022-07-19T07:09:54;2.87;;;2.03;;
1004;SDS011;491;53.480;10.174;2022-07-19T07:12:20;2.27;;;1.53;;
1004;SDS011;491;53.480;10.174;2022-07-19T07:14:48;3.03;;;1.53;;
1004;SDS011;491;53.480;10.174;2022-07-19T07:17:14;3.60;;;2.13;;
1004;SDS011;491;53.480;10.174;2022-07-19T07:19:42;2.50;;;1.63;;
1004;SDS011;491;53.480;10.174;2022-07-19T07:22:08;5.33;;;1.87;;
1004;SDS011;491;53.480;10.174;2022-07-19T07:24:36;3.60;;;1.67;;
1004;SDS011;491;53.480;10.174;2022-07-19T07:27:02;2.60;;;2.03;;
1004;SDS011;491;53.480;10.174;2022-07-19T07:29:28;2.17;;;1.37;;
1004;SDS011;491;53.480;10.174;2022-07-19T07:31:53;3.00;;;1.93;;
1004;SDS011;491;53.480;10.174;2022-07-19T07:34:19;3.07;;;1.93;;
1004;SDS011;491;53.480;10.174;2022-07-19T07:36:44;1.63;;;1.37;;
1004;SDS011;491;53.480;10.174;2022-07-19T07:39:10;2.83;;;2.03;;
1004;SDS011;491;53.480;10.174;2022-07-19T07:41:36;3.03;;;1.60;;
1004;SDS011;491;53.480;10.174;2022-07-19T07:44:02;2.50;;;2.13;;
1004;SDS011;491;53.480;10.174;2022-07-19T07:46:28;2.70;;;1.83;;
1004;SDS011;491;53.480;10.174;2022-07-19T07:48:54;2.37;;;2.03;;
1004;SDS011;491;53.480;10.174;2022-07-19T07:51:19;3.43;;;1.63;;
1004;SDS011;491;53.480;10.174;2022-07-19T07:53:45;2.10;;;1.57;;
1004;SDS011;491;53.480;10.174;2022-07-19T07:56:10;4.23;;;2.50;;
1004;SDS011;491;53.480;10.174;2022-07-19T07:58:36;2.33;;;1.90;;
1004;SDS011;491;53.480;10.174;2022-07-19T08:01:02;2.43;;;1.90;;
1004;SDS011;491;53.480;10.174;2022-07-19T08:03:28;2.03;;;1.83;;
1004;SDS011;491;53.480;10.174;2022-07-19T08:05:54;2.83;;;1.80;;
1004;SDS011;491;53.480;10.174;2022-07-19T08:08:22;2.03;;;1.80;;
1004;SDS011;491;53.480;10.174;2022-07-19T08:10:51;2.17;;;1.33;;
1004;SDS011;491;53.480;10.174;2022-07-19T08:13:18;2.50;;;1.90;;
1004;SDS011;491;53.480;10.174;2022-07-19T08:15:43;1.93;;;1.73;;
1004;SDS011;491;53.480;10.174;2022-07-19T08:18:09;2.67;;;2.20;;
1004;SDS011;491;53.480;10.174;2022-07-19T08:20:35;2.17;;;1.53;;
1004;SDS011;491;53.480;10.174;2022-07-19T08:23:03;2.80;;;1.90;;
1004;SDS011;491;53.480;10.174;2022-07-19T08:25:29;2.40;;;1.60;;
1004;SDS011;491;53.480;10.174;2022-07-19T08:27:55;1.87;;;1.60;;
1004;SDS011;491;53.480;10.174;2022-07-19T08:30:20;3.47;;;1.40;;
1004;SDS011;491;53.480;10.174;2022-07-19T08:32:46;2.33;;;1.60;;
1004;SDS011;491;53.480;10.174;2022-07-19T08:35:11;2.50;;;1.70;;
1004;SDS011;491;53.480;10.174;2022-07-19T08:37:37;2.50;;;1.67;;
1004;SDS011;491;53.480;10.174;2022-07-19T08:40:04;2.00;;;1.40;;
1004;SDS011;491;53.480;10.174;2022-07-19T08:42:31;2.23;;;1.43;;
1004;SDS011;491;53.480;10.174;2022-07-19T08:44:59;2.37;;;2.17;;
1004;SDS011;491;53.480;10.174;2022-07-19T08:47:27;2.30;;;1.80;;
1004;SDS011;491;53.480;10.174;2022-07-19T08:49:54;2.80;;;1.73;;
1004;SDS011;491;53.480;10.174;2022-07-19T08:52:19;2.50;;;1.40;;
1004;SDS011;491;53.480;10.174;2022-07-19T08:54:46;2.30;;;1.57;;
1004;SDS011;491;53.480;10.174;2022-07-19T08:57:12;1.60;;;1.23;;
1004;SDS011;491;53.480;10.174;2022-07-19T08:59:57;2.23;;;1.97;;
1004;SDS011;491;53.480;10.174;2022-07-19T09:02:22;1.87;;;1.30;;
1004;SDS011;491;53.480;10.174;2022-07-19T09:05:07;2.23;;;1.60;;
1004;SDS011;491;53.480;10.174;2022-07-19T09:07:37;2.30;;;1.30;;
1004;SDS011;491;53.480;10.174;2022-07-19T09:10:19;2.27;;;1.83;;
1004;SDS011;491;53.480;10.174;2022-07-19T09:18:22;1.43;;;1.30;;
1004;SDS011;491;53.480;10.174;2022-07-19T09:20:50;1.80;;;1.50;;
1004;SDS011;491;53.480;10.174;2022-07-19T09:23:21;2.07;;;1.87;;
1004;SDS011;491;53.480;10.174;2022-07-19T09:25:52;1.80;;;1.30;;
1004;SDS011;491;53.480;10.174;2022-07-19T09:28:19;2.30;;;1.83;;
1004;SDS011;491;53.480;10.174;2022-07-19T09:30:56;1.43;;;1.33;;
1004;SDS011;491;53.480;10.174;2022-07-19T09:33:27;2.43;;;1.73;;
1004;SDS011;491;53.480;10.174;2022-07-19T09:35:58;2.23;;;2.03;;
1004;SDS011;491;53.480;10.174;2022-07-19T09:41:15;1.80;;;1.30;;
1004;SDS011;491;53.480;10.174;2022-07-19T09:43:52;1.73;;;0.97;;
1004;SDS011;491;53.480;10.174;2022-07-19T09:46:39;1.90;;;1.50;;
1004;SDS011;491;53.480;10.174;2022-07-19T09:49:08;2.20;;;1.70;;
1004;SDS011;491;53.480;10.174;2022-07-19T09:51:38;1.73;;;1.63;;
1004;SDS011;491;53.480;10.174;2022-07-19T09:54:10;1.87;;;1.67;;
1004;SDS011;491;53.480;10.174;2022-07-19T09:56:38;1.60;;;1.50;;
1004;SDS011;491;53.480;10.174;2022-07-19T09:59:04;1.80;;;1.53;;
1004;SDS011;491;53.480;10.174;2022-07-19T10:01:30;2.00;;;1.50;;
1004;SDS011;491;53.480;10.174;2022-07-19T10:03:58;2.40;;;1.90;;
1004;SDS011;491;53.480;10.174;2022-07-19T10:06:36;1.70;;;1.30;;
1004;SDS011;491;53.480;10.174;2022-07-19T10:09:06;1.97;;;1.60;;
1004;SDS011;491;53.480;10.174;2022-07-19T10:11:34;1.60;;;1.40;;
1004;SDS011;491;53.480;10.174;2022-07-19T10:14:02;1.73;;;1.63;;
1004;SDS011;491;53.480;10.174;2022-07-19T10:19:19;1.30;;;1.20;;
1004;SDS011;491;53.480;10.174;2022-07-19T10:21:53;1.63;;;1.53;;
1004;SDS011;491;53.480;10.174;2022-07-19T10:27:08;1.97;;;1.77;;
1004;SDS011;491;53.480;10.174;2022-07-19T10:29:33;1.80;;;1.70;;
1004;SDS011;491;53.480;10.174;2022-07-19T10:32:07;1.77;;;1.67;;
1004;SDS011;491;53.480;10.174;2022-07-19T10:34:34;1.80;;;1.70;;
1004;SDS011;491;53.480;10.174;2022-07-19T10:37:00;1.67;;;1.57;;
1004;SDS011;491;53.480;10.174;2022-07-19T10:39:33;1.70;;;1.60;;
1004;SDS011;491;53.480;10.174;2022-07-19T10:42:03;1.70;;;1.60;;
1004;SDS011;491;53.480;10.174;2022-07-19T10:50:14;1.67;;;1.55;;
1004;SDS011;491;53.480;10.174;2022-07-19T10:52:43;1.67;;;1.58;;
1004;SDS011;491;53.480;10.174;2022-07-19T10:58:18;1.70;;;1.60;;
1004;SDS011;491;53.480;10.174;2022-07-19T11:00:41;2.00;;;1.90;;
1004;SDS011;491;53.480;10.174;2022-07-19T11:05:47;1.77;;;1.67;;
1004;SDS011;491;53.480;10.174;2022-07-19T11:08:13;1.75;;;1.65;;
1004;SDS011;491;53.480;10.174;2022-07-19T11:10:39;2.15;;;1.95;;
1004;SDS011;491;53.480;10.174;2022-07-19T11:13:04;2.10;;;2.00;;
1004;SDS011;491;53.480;10.174;2022-07-19T11:15:31;1.80;;;1.70;;
1004;SDS011;491;53.480;10.174;2022-07-19T11:18:08;2.35;;;2.25;;
1004;SDS011;491;53.480;10.174;2022-07-19T11:20:34;2.70;;;2.20;;
1004;SDS011;491;53.480;10.174;2022-07-19T11:23:06;2.92;;;2.10;;
1004;SDS011;491;53.480;10.174;2022-07-19T11:25:36;2.05;;;1.95;;
1004;SDS011;491;53.480;10.174;2022-07-19T11:28:04;1.80;;;1.70;;
1004;SDS011;491;53.480;10.174;2022-07-19T11:30:31;2.30;;;2.10;;
1004;SDS011;491;53.480;10.174;2022-07-19T11:33:00;2.10;;;2.00;;
1004;SDS011;491;53.480;10.174;2022-07-19T11:35:31;1.90;;;1.80;;
1004;SDS011;491;53.480;10.174;2022-07-19T11:37:58;2.15;;;1.98;;
1004;SDS011;491;53.480;10.174;2022-07-19T11:40:34;2.37;;;2.17;;
1004;SDS011;491;53.480;10.174;2022-07-19T11:43:04;2.00;;;1.90;;
1004;SDS011;491;53.480;10.174;2022-07-19T11:45:32;1.37;;;1.27;;
1004;SDS011;491;53.480;10.174;2022-07-19T11:48:10;1.50;;;1.40;;
1004;SDS011;491;53.480;10.174;2022-07-19T11:50:35;2.15;;;1.95;;
1004;SDS011;491;53.480;10.174;2022-07-19T11:53:01;1.90;;;1.80;;
1004;SDS011;491;53.480;10.174;2022-07-19T11:55:28;1.70;;;1.60;;
1004;SDS011;491;53.480;10.174;2022-07-19T11:57:59;1.88;;;1.77;;
1004;SDS011;491;53.480;10.174;2022-07-19T12:00:31;2.20;;;2.10;;
1004;SDS011;491;53.480;10.174;2022-07-19T12:03:05;2.15;;;1.95;;
1004;SDS011;491;53.480;10.174;2022-07-19T12:05:35;2.30;;;2.20;;
1004;SDS011;491;53.480;10.174;2022-07-19T12:08:03;2.15;;;2.05;;
1004;SDS011;491;53.480;10.174;2022-07-19T12:10:37;1.70;;;1.60;;
1004;SDS011;491;53.480;10.174;2022-07-19T12:13:10;1.33;;;1.23;;
1004;SDS011;491;53.480;10.174;2022-07-19T12:15:44;1.50;;;1.40;;
1004;SDS011;491;53.480;10.174;2022-07-19T12:18:10;1.03;;;0.93;;
1004;SDS011;491;53.480;10.174;2022-07-19T12:20:35;1.47;;;1.37;;
1004;SDS011;491;53.480;10.174;2022-07-19T12:23:11;1.17;;;0.90;;
1004;SDS011;491;53.480;10.174;2022-07-19T12:25:41;1.27;;;1.17;;
1004;SDS011;491;53.480;10.174;2022-07-19T12:28:07;1.90;;;1.20;;
1004;SDS011;491;53.480;10.174;2022-07-19T12:30:33;1.90;;;1.57;;
1004;SDS011;491;53.480;10.174;2022-07-19T12:33:05;1.85;;;1.10;;
1004;SDS011;491;53.480;10.174;2022-07-19T12:35:47;1.33;;;1.23;;
1004;SDS011;491;53.480;10.174;2022-07-19T12:38:13;1.48;;;1.35;;
1004;SDS011;491;53.480;10.174;2022-07-19T12:40:43;1.77;;;1.67;;
1004;SDS011;491;53.480;10.174;2022-07-19T12:43:09;2.10;;;1.55;;
1004;SDS011;491;53.480;10.174;2022-07-19T12:45:39;1.90;;;1.80;;
1004;SDS011;491;53.480;10.174;2022-07-19T12:48:11;1.98;;;1.88;;
1004;SDS011;491;53.480;10.174;2022-07-19T12:50:42;2.10;;;2.00;;
1004;SDS011;491;53.480;10.174;2022-07-19T12:53:22;2.08;;;1.98;;
1004;SDS011;491;53.480;10.174;2022-07-19T12:55:48;2.50;;;2.40;;
1004;SDS011;491;53.480;10.174;2022-07-19T12:58:15;2.70;;;2.50;;
1004;SDS011;491;53.480;10.174;2022-07-19T13:01:01;1.65;;;1.55;;
1004;SDS011;491;53.480;10.174;2022-07-19T13:03:27;2.10;;;2.00;;
1004;SDS011;491;53.480;10.174;2022-07-19T13:05:52;2.47;;;2.38;;
1004;SDS011;491;53.480;10.174;2022-07-19T13:08:18;2.13;;;2.03;;
1004;SDS011;491;53.480;10.174;2022-07-19T13:10:43;2.28;;;2.17;;
1004;SDS011;491;53.480;10.174;2022-07-19T13:13:09;2.00;;;1.90;;
1004;SDS011;491;53.480;10.174;2022-07-19T13:15:35;2.33;;;2.00;;
1004;SDS011;491;53.480;10.174;2022-07-19T13:18:00;3.10;;;2.45;;
1004;SDS011;491;53.480;10.174;2022-07-19T13:20:26;2.67;;;2.05;;
1004;SDS011;491;53.480;10.174;2022-07-19T13:22:53;1.88;;;1.77;;
1004;SDS011;491;53.480;10.174;2022-07-19T13:25:18;2.28;;;2.00;;
1004;SDS011;491;53.480;10.174;2022-07-19T13:27:44;1.80;;;1.70;;
1004;SDS011;491;53.480;10.174;2022-07-19T13:30:10;1.65;;;1.60;;
1004;SDS011;491;53.480;10.174;2022-07-19T13:32:36;1.67;;;1.58;;
1004;SDS011;491;53.480;10.174;2022-07-19T13:35:02;1.48;;;1.38;;
1004;SDS011;491;53.480;10.174;2022-07-19T13:37:27;1.85;;;1.75;;
1004;SDS011;491;53.480;10.174;2022-07-19T13:39:53;1.85;;;1.40;;
1004;SDS011;491;53.480;10.174;2022-07-19T13:42:18;1.88;;;1.33;;
1004;SDS011;491;53.480;10.174;2022-07-19T13:44:44;1.60;;;1.50;;
1004;SDS011;491;53.480;10.174;2022-07-19T13:47:09;1.60;;;1.50;;
1004;SDS011;491;53.480;10.174;2022-07-19T13:49:35;1.63;;;1.27;;
1004;SDS011;491;53.480;10.174;2022-07-19T13:52:00;1.45;;;1.35;;
1004;SDS011;491;53.480;10.174;2022-07-19T13:54:26;1.48;;;1.38;;
1004;SDS011;491;53.480;10.174;2022-07-19T13:56:51;1.27;;;1.27;;
1004;SDS011;491;53.480;10.174;2022-07-19T13:59:17;2.83;;;1.40;;
1004;SDS011;491;53.480;10.174;2022-07-19T14:01:43;1.10;;;1.00;;
1004;SDS011;491;53.480;10.174;2022-07-19T14:04:09;0.93;;;0.67;;
1004;SDS011;491;53.480;10.174;2022-07-19T14:06:34;1.90;;;1.00;;
1004;SDS011;491;53.480;10.174;2022-07-19T14:09:00;2.63;;;0.83;;
1004;SDS011;491;53.480;10.174;2022-07-19T14:11:25;1.17;;;0.60;;
1004;SDS011;491;53.480;10.174;2022-07-19T14:13:54;1.47;;;0.80;;
1004;SDS011;491;53.480;10.174;2022-07-19T14:16:19;1.20;;;0.60;;
1004;SDS011;491;53.480;10.174;2022-07-19T14:18:45;1.23;;;0.70;;
1004;SDS011;491;53.480;10.174;2022-07-19T14:21:10;2.93;;;0.87;;
1004;SDS011;491;53.480;10.174;2022-07-19T14:23:36;1.63;;;0.70;;
1004;SDS011;491;53.480;10.174;2022-07-19T14:26:01;2.43;;;0.70;;
1004;SDS011;491;53.480;10.174;2022-07-19T14:28:27;2.03;;;1.07;;
1004;SDS011;491;53.480;10.174;2022-07-19T14:30:53;1.17;;;0.53;;
1004;SDS011;491;53.480;10.174;2022-07-19T14:33:18;1.47;;;0.77;;
1004;SDS011;491;53.480;10.174;2022-07-19T14:35:44;1.93;;;0.60;;
1004;SDS011;491;53.480;10.174;2022-07-19T14:38:09;2.10;;;0.80;;
1004;SDS011;491;53.480;10.174;2022-07-19T14:40:35;1.17;;;0.60;;
1004;SDS011;491;53.480;10.174;2022-07-19T14:43:01;0.90;;;0.40;;
1004;SDS011;491;53.480;10.174;2022-07-19T14:45:27;1.03;;;0.43;;
1004;SDS011;491;53.480;10.174;2022-07-19T14:47:53;1.83;;;1.33;;
1004;SDS011;491;53.480;10.174;2022-07-19T14:50:18;1.20;;;1.00;;
1004;SDS011;491;53.480;10.174;2022-07-19T14:52:44;0.70;;;0.50;;
1004;SDS011;491;53.480;10.174;2022-07-19T14:55:10;1.20;;;0.90;;
1004;SDS011;491;53.480;10.174;2022-07-19T14:57:36;2.50;;;1.47;;
1004;SDS011;491;53.480;10.174;2022-07-19T15:00:03;0.80;;;0.67;;
1004;SDS011;491;53.480;10.174;2022-07-19T15:02:30;1.20;;;0.70;;
1004;SDS011;491;53.480;10.174;2022-07-19T15:04:56;1.00;;;0.60;;
1004;SDS011;491;53.480;10.174;2022-07-19T15:07:22;0.80;;;0.47;;
1004;SDS011;491;53.480;10.174;2022-07-19T15:09:47;1.00;;;0.60;;
1004;SDS011;491;53.480;10.174;2022-07-19T15:12:13;1.40;;;0.90;;
1004;SDS011;491;53.480;10.174;2022-07-19T15:14:38;2.00;;;1.00;;
1004;SDS011;491;53.480;10.174;2022-07-19T15:17:04;1.53;;;0.77;;
1004;SDS011;491;53.480;10.174;2022-07-19T15:19:30;2.00;;;0.90;;
1004;SDS011;491;53.480;10.174;2022-07-19T15:21:56;1.87;;;0.60;;
1004;SDS011;491;53.480;10.174;2022-07-19T15:24:21;1.40;;;0.80;;
1004;SDS011;491;53.480;10.174;2022-07-19T15:26:47;1.20;;;0.80;;
1004;SDS011;491;53.480;10.174;2022-07-19T15:29:14;3.40;;;0.80;;
1004;SDS011;491;53.480;10.174;2022-07-19T15:31:43;1.00;;;0.70;;
1004;SDS011;491;53.480;10.174;2022-07-19T15:34:09;1.67;;;0.97;;
1004;SDS011;491;53.480;10.174;2022-07-19T15:36:35;1.87;;;0.87;;
1004;SDS011;491;53.480;10.174;2022-07-19T15:39:01;3.10;;;0.90;;